Beaver Dam, Texas
Current Conditions -  °F | °C
As of 12:35 PM on Saturday 20 Dec 2014 (Local Time) from KOSA Reporting Station
Overcast Overcast  
Wind Chill: 47°   Ceiling: 700
Heat Index: 47°   Visibility: 4mi
Dew Point: 44°   Wind: 0mph
Humidity: 90%   Direction: NA
Pressure: 30.24"   Gusts: NA
Location:  33.4703°N, 94.6281°W
Report Text: KOSA 201835Z AUTO 00000KT 4SM OVC007 08/07 A3024 RMK AO1 T00830068
Loading
Personal Weather Stations






























Interactive Weather Map New forecast layout! Learn more

10-Day Weather Forecast

Advertisements
Track Severe Weather on mobile